sensor_id;sensor_type;location;lat;lon;timestamp;P1;durP1;ratioP1;P2;durP2;ratioP2
67185;SDS011;54116;53.518;49.398;2023-01-29T00:01:56;12.38;;;3.83;;
67185;SDS011;54116;53.518;49.398;2023-01-29T00:04:22;14.18;;;4.93;;
67185;SDS011;54116;53.518;49.398;2023-01-29T00:06:48;14.52;;;4.13;;
67185;SDS011;54116;53.518;49.398;2023-01-29T00:09:14;13.45;;;4.28;;
67185;SDS011;54116;53.518;49.398;2023-01-29T00:11:40;11.48;;;3.75;;
67185;SDS011;54116;53.518;49.398;2023-01-29T00:14:06;12.55;;;3.90;;
67185;SDS011;54116;53.518;49.398;2023-01-29T00:16:34;9.88;;;3.55;;
67185;SDS011;54116;53.518;49.398;2023-01-29T00:19:00;10.48;;;2.95;;
67185;SDS011;54116;53.518;49.398;2023-01-29T00:21:27;8.60;;;2.47;;
67185;SDS011;54116;53.518;49.398;2023-01-29T00:23:55;7.90;;;2.80;;
67185;SDS011;54116;53.518;49.398;2023-01-29T00:26:21;9.60;;;2.53;;
67185;SDS011;54116;53.518;49.398;2023-01-29T00:28:48;8.25;;;2.63;;
67185;SDS011;54116;53.518;49.398;2023-01-29T00:31:15;8.70;;;2.75;;
67185;SDS011;54116;53.518;49.398;2023-01-29T00:33:42;7.38;;;2.00;;
67185;SDS011;54116;53.518;49.398;2023-01-29T00:36:09;8.10;;;2.55;;
67185;SDS011;54116;53.518;49.398;2023-01-29T00:38:37;7.25;;;2.13;;
67185;SDS011;54116;53.518;49.398;2023-01-29T00:43:52;7.63;;;1.92;;
67185;SDS011;54116;53.518;49.398;2023-01-29T00:46:36;6.78;;;2.15;;
67185;SDS011;54116;53.518;49.398;2023-01-29T00:49:03;7.93;;;2.30;;
67185;SDS011;54116;53.518;49.398;2023-01-29T00:51:30;6.25;;;2.10;;
67185;SDS011;54116;53.518;49.398;2023-01-29T00:53:56;8.40;;;2.65;;
67185;SDS011;54116;53.518;49.398;2023-01-29T00:56:23;7.80;;;2.50;;
67185;SDS011;54116;53.518;49.398;2023-01-29T00:58:50;7.35;;;2.40;;
67185;SDS011;54116;53.518;49.398;2023-01-29T01:01:16;6.50;;;2.35;;
67185;SDS011;54116;53.518;49.398;2023-01-29T01:04:04;7.18;;;2.45;;
67185;SDS011;54116;53.518;49.398;2023-01-29T01:06:30;8.23;;;2.47;;
67185;SDS011;54116;53.518;49.398;2023-01-29T01:08:57;9.00;;;2.25;;
67185;SDS011;54116;53.518;49.398;2023-01-29T01:11:42;7.00;;;1.83;;
67185;SDS011;54116;53.518;49.398;2023-01-29T01:14:08;6.07;;;1.83;;
67185;SDS011;54116;53.518;49.398;2023-01-29T01:16:34;6.30;;;1.83;;
67185;SDS011;54116;53.518;49.398;2023-01-29T01:19:01;8.65;;;1.83;;
67185;SDS011;54116;53.518;49.398;2023-01-29T01:21:28;7.90;;;2.58;;
67185;SDS011;54116;53.518;49.398;2023-01-29T01:23:54;7.40;;;2.75;;
67185;SDS011;54116;53.518;49.398;2023-01-29T01:26:20;6.63;;;1.77;;
67185;SDS011;54116;53.518;49.398;2023-01-29T01:28:46;7.57;;;2.08;;
67185;SDS011;54116;53.518;49.398;2023-01-29T01:31:12;8.85;;;2.55;;
67185;SDS011;54116;53.518;49.398;2023-01-29T01:33:39;8.35;;;1.98;;
67185;SDS011;54116;53.518;49.398;2023-01-29T01:36:06;4.88;;;2.00;;
67185;SDS011;54116;53.518;49.398;2023-01-29T01:38:36;5.47;;;1.88;;
67185;SDS011;54116;53.518;49.398;2023-01-29T01:41:10;6.60;;;2.97;;
67185;SDS011;54116;53.518;49.398;2023-01-29T01:46:23;7.30;;;1.95;;
67185;SDS011;54116;53.518;49.398;2023-01-29T01:48:57;6.45;;;1.83;;
67185;SDS011;54116;53.518;49.398;2023-01-29T01:51:37;6.22;;;1.80;;
67185;SDS011;54116;53.518;49.398;2023-01-29T01:54:07;7.88;;;2.95;;
67185;SDS011;54116;53.518;49.398;2023-01-29T01:56:38;4.13;;;1.30;;
67185;SDS011;54116;53.518;49.398;2023-01-29T01:59:11;4.35;;;1.52;;
67185;SDS011;54116;53.518;49.398;2023-01-29T02:01:40;3.55;;;1.25;;
67185;SDS011;54116;53.518;49.398;2023-01-29T02:04:22;6.40;;;1.67;;
67185;SDS011;54116;53.518;49.398;2023-01-29T02:07:10;5.60;;;1.52;;
67185;SDS011;54116;53.518;49.398;2023-01-29T02:12:30;5.97;;;1.90;;
67185;SDS011;54116;53.518;49.398;2023-01-29T02:14:57;6.40;;;2.13;;
67185;SDS011;54116;53.518;49.398;2023-01-29T02:17:24;6.60;;;1.90;;
67185;SDS011;54116;53.518;49.398;2023-01-29T02:28:26;5.38;;;1.67;;
67185;SDS011;54116;53.518;49.398;2023-01-29T02:31:34;7.38;;;2.28;;
67185;SDS011;54116;53.518;49.398;2023-01-29T02:34:10;5.13;;;1.73;;
67185;SDS011;54116;53.518;49.398;2023-01-29T02:42:16;8.65;;;1.98;;
67185;SDS011;54116;53.518;49.398;2023-01-29T02:45:11;7.97;;;2.03;;
67185;SDS011;54116;53.518;49.398;2023-01-29T02:48:15;9.38;;;2.65;;
67185;SDS011;54116;53.518;49.398;2023-01-29T02:53:47;6.93;;;2.20;;
67185;SDS011;54116;53.518;49.398;2023-01-29T02:56:38;6.07;;;2.55;;
67185;SDS011;54116;53.518;49.398;2023-01-29T02:59:12;6.93;;;2.40;;
67185;SDS011;54116;53.518;49.398;2023-01-29T03:01:53;8.82;;;2.42;;
67185;SDS011;54116;53.518;49.398;2023-01-29T03:04:27;6.30;;;2.25;;
67185;SDS011;54116;53.518;49.398;2023-01-29T03:09:39;7.38;;;2.45;;
67185;SDS011;54116;53.518;49.398;2023-01-29T03:12:16;11.52;;;2.85;;
67185;SDS011;54116;53.518;49.398;2023-01-29T03:15:04;6.57;;;2.05;;
67185;SDS011;54116;53.518;49.398;2023-01-29T03:17:53;7.13;;;2.40;;
67185;SDS011;54116;53.518;49.398;2023-01-29T03:20:27;7.75;;;2.85;;
67185;SDS011;54116;53.518;49.398;2023-01-29T03:22:59;7.00;;;2.38;;
67185;SDS011;54116;53.518;49.398;2023-01-29T03:25:30;8.43;;;2.60;;
67185;SDS011;54116;53.518;49.398;2023-01-29T03:28:17;9.68;;;2.58;;
67185;SDS011;54116;53.518;49.398;2023-01-29T03:31:05;8.25;;;2.55;;
67185;SDS011;54116;53.518;49.398;2023-01-29T03:33:53;8.45;;;2.83;;
67185;SDS011;54116;53.518;49.398;2023-01-29T03:36:35;7.63;;;2.72;;
67185;SDS011;54116;53.518;49.398;2023-01-29T03:39:11;9.77;;;3.50;;
67185;SDS011;54116;53.518;49.398;2023-01-29T03:41:42;10.52;;;3.55;;
67185;SDS011;54116;53.518;49.398;2023-01-29T03:47:21;12.52;;;3.53;;
67185;SDS011;54116;53.518;49.398;2023-01-29T03:50:09;15.40;;;3.80;;
67185;SDS011;54116;53.518;49.398;2023-01-29T03:52:50;11.15;;;3.22;;
67185;SDS011;54116;53.518;49.398;2023-01-29T03:55:33;14.63;;;4.95;;
67185;SDS011;54116;53.518;49.398;2023-01-29T03:58:22;10.52;;;3.15;;
67185;SDS011;54116;53.518;49.398;2023-01-29T04:00:59;11.95;;;3.50;;
67185;SDS011;54116;53.518;49.398;2023-01-29T04:06:30;11.45;;;3.42;;
67185;SDS011;54116;53.518;49.398;2023-01-29T04:11:36;11.48;;;3.83;;
67185;SDS011;54116;53.518;49.398;2023-01-29T04:14:06;12.40;;;4.25;;
67185;SDS011;54116;53.518;49.398;2023-01-29T04:16:35;12.20;;;3.78;;
67185;SDS011;54116;53.518;49.398;2023-01-29T04:19:05;13.07;;;4.03;;
67185;SDS011;54116;53.518;49.398;2023-01-29T04:21:32;10.35;;;3.47;;
67185;SDS011;54116;53.518;49.398;2023-01-29T04:24:01;8.98;;;3.00;;
67185;SDS011;54116;53.518;49.398;2023-01-29T04:28:58;13.90;;;4.15;;
67185;SDS011;54116;53.518;49.398;2023-01-29T04:31:46;15.13;;;4.90;;
67185;SDS011;54116;53.518;49.398;2023-01-29T04:34:20;13.57;;;3.85;;
67185;SDS011;54116;53.518;49.398;2023-01-29T04:39:33;12.98;;;4.05;;
67185;SDS011;54116;53.518;49.398;2023-01-29T04:42:11;11.32;;;4.10;;
67185;SDS011;54116;53.518;49.398;2023-01-29T04:45:07;12.85;;;3.67;;
67185;SDS011;54116;53.518;49.398;2023-01-29T04:51:12;11.63;;;3.60;;
67185;SDS011;54116;53.518;49.398;2023-01-29T04:53:53;10.13;;;3.33;;
67185;SDS011;54116;53.518;49.398;2023-01-29T04:56:41;9.88;;;3.40;;
67185;SDS011;54116;53.518;49.398;2023-01-29T04:59:30;12.82;;;4.72;;
67185;SDS011;54116;53.518;49.398;2023-01-29T05:02:03;9.13;;;3.55;;
67185;SDS011;54116;53.518;49.398;2023-01-29T05:04:34;9.90;;;3.30;;
67185;SDS011;54116;53.518;49.398;2023-01-29T05:07:02;10.98;;;3.30;;
67185;SDS011;54116;53.518;49.398;2023-01-29T05:09:31;14.70;;;3.97;;
67185;SDS011;54116;53.518;49.398;2023-01-29T05:12:00;14.73;;;4.13;;
67185;SDS011;54116;53.518;49.398;2023-01-29T05:14:29;12.68;;;3.80;;
67185;SDS011;54116;53.518;49.398;2023-01-29T05:16:58;11.68;;;3.40;;
67185;SDS011;54116;53.518;49.398;2023-01-29T05:19:29;12.55;;;3.55;;
67185;SDS011;54116;53.518;49.398;2023-01-29T05:21:55;10.07;;;3.65;;
67185;SDS011;54116;53.518;49.398;2023-01-29T05:24:23;16.20;;;4.00;;
67185;SDS011;54116;53.518;49.398;2023-01-29T05:26:51;11.93;;;4.10;;
67185;SDS011;54116;53.518;49.398;2023-01-29T05:29:36;14.93;;;3.70;;
67185;SDS011;54116;53.518;49.398;2023-01-29T05:32:07;12.13;;;3.75;;
67185;SDS011;54116;53.518;49.398;2023-01-29T05:34:33;11.68;;;4.05;;
67185;SDS011;54116;53.518;49.398;2023-01-29T05:36:59;10.27;;;3.60;;
67185;SDS011;54116;53.518;49.398;2023-01-29T05:39:25;9.60;;;2.90;;
67185;SDS011;54116;53.518;49.398;2023-01-29T05:41:51;13.75;;;4.32;;
67185;SDS011;54116;53.518;49.398;2023-01-29T05:44:17;10.73;;;3.67;;
67185;SDS011;54116;53.518;49.398;2023-01-29T05:46:43;11.45;;;4.30;;
67185;SDS011;54116;53.518;49.398;2023-01-29T05:49:10;8.75;;;3.22;;
67185;SDS011;54116;53.518;49.398;2023-01-29T05:51:36;10.48;;;3.30;;
67185;SDS011;54116;53.518;49.398;2023-01-29T05:54:03;15.63;;;4.00;;
67185;SDS011;54116;53.518;49.398;2023-01-29T05:56:29;11.65;;;3.50;;
67185;SDS011;54116;53.518;49.398;2023-01-29T05:58:55;11.43;;;3.53;;
67185;SDS011;54116;53.518;49.398;2023-01-29T06:01:22;10.73;;;3.47;;
67185;SDS011;54116;53.518;49.398;2023-01-29T06:03:50;15.85;;;3.80;;
67185;SDS011;54116;53.518;49.398;2023-01-29T06:06:16;9.27;;;3.53;;
67185;SDS011;54116;53.518;49.398;2023-01-29T06:08:42;11.88;;;4.63;;
67185;SDS011;54116;53.518;49.398;2023-01-29T06:11:09;12.43;;;4.45;;
67185;SDS011;54116;53.518;49.398;2023-01-29T06:13:36;12.02;;;4.30;;
67185;SDS011;54116;53.518;49.398;2023-01-29T06:18:32;10.02;;;3.25;;
67185;SDS011;54116;53.518;49.398;2023-01-29T06:21:01;10.70;;;3.75;;
67185;SDS011;54116;53.518;49.398;2023-01-29T06:23:30;10.65;;;3.65;;
67185;SDS011;54116;53.518;49.398;2023-01-29T06:26:00;12.40;;;3.90;;
67185;SDS011;54116;53.518;49.398;2023-01-29T06:28:36;12.07;;;3.92;;
67185;SDS011;54116;53.518;49.398;2023-01-29T06:31:03;11.43;;;4.13;;
67185;SDS011;54116;53.518;49.398;2023-01-29T06:33:30;8.07;;;3.60;;
67185;SDS011;54116;53.518;49.398;2023-01-29T06:35:56;12.25;;;3.47;;
67185;SDS011;54116;53.518;49.398;2023-01-29T06:38:27;10.43;;;3.45;;
67185;SDS011;54116;53.518;49.398;2023-01-29T06:43:20;10.07;;;3.22;;
67185;SDS011;54116;53.518;49.398;2023-01-29T06:45:49;12.77;;;3.33;;
67185;SDS011;54116;53.518;49.398;2023-01-29T06:48:16;10.25;;;3.60;;
67185;SDS011;54116;53.518;49.398;2023-01-29T06:50:43;10.00;;;3.80;;
67185;SDS011;54116;53.518;49.398;2023-01-29T06:55:36;13.38;;;3.80;;
67185;SDS011;54116;53.518;49.398;2023-01-29T06:58:06;9.02;;;3.78;;
67185;SDS011;54116;53.518;49.398;2023-01-29T07:00:33;9.60;;;3.10;;
67185;SDS011;54116;53.518;49.398;2023-01-29T07:05:25;10.93;;;3.08;;
67185;SDS011;54116;53.518;49.398;2023-01-29T07:07:51;10.43;;;3.65;;
67185;SDS011;54116;53.518;49.398;2023-01-29T07:10:18;10.68;;;4.13;;
67185;SDS011;54116;53.518;49.398;2023-01-29T07:12:44;11.07;;;3.80;;
67185;SDS011;54116;53.518;49.398;2023-01-29T07:15:10;10.68;;;3.70;;
67185;SDS011;54116;53.518;49.398;2023-01-29T07:17:44;11.30;;;4.15;;
67185;SDS011;54116;53.518;49.398;2023-01-29T07:20:37;11.88;;;3.80;;
67185;SDS011;54116;53.518;49.398;2023-01-29T07:23:04;11.23;;;4.80;;
67185;SDS011;54116;53.518;49.398;2023-01-29T07:25:33;10.38;;;3.88;;
67185;SDS011;54116;53.518;49.398;2023-01-29T07:27:59;11.15;;;4.03;;
67185;SDS011;54116;53.518;49.398;2023-01-29T07:30:26;15.13;;;4.18;;
67185;SDS011;54116;53.518;49.398;2023-01-29T07:32:52;10.85;;;3.83;;
67185;SDS011;54116;53.518;49.398;2023-01-29T07:35:18;10.93;;;3.45;;
67185;SDS011;54116;53.518;49.398;2023-01-29T07:37:47;12.55;;;4.40;;
67185;SDS011;54116;53.518;49.398;2023-01-29T07:40:14;12.20;;;3.88;;
67185;SDS011;54116;53.518;49.398;2023-01-29T07:42:41;11.35;;;4.55;;
67185;SDS011;54116;53.518;49.398;2023-01-29T07:45:08;9.23;;;3.42;;
67185;SDS011;54116;53.518;49.398;2023-01-29T07:47:35;12.07;;;4.35;;
67185;SDS011;54116;53.518;49.398;2023-01-29T07:50:02;11.07;;;3.65;;
67185;SDS011;54116;53.518;49.398;2023-01-29T07:52:29;11.57;;;3.00;;
67185;SDS011;54116;53.518;49.398;2023-01-29T07:54:57;9.07;;;3.58;;
67185;SDS011;54116;53.518;49.398;2023-01-29T07:57:23;10.48;;;3.30;;
67185;SDS011;54116;53.518;49.398;2023-01-29T07:59:49;13.00;;;4.20;;
67185;SDS011;54116;53.518;49.398;2023-01-29T08:02:16;10.13;;;3.40;;
67185;SDS011;54116;53.518;49.398;2023-01-29T08:04:42;11.18;;;3.78;;
67185;SDS011;54116;53.518;49.398;2023-01-29T08:07:08;10.77;;;3.25;;
67185;SDS011;54116;53.518;49.398;2023-01-29T08:09:34;11.25;;;3.90;;
67185;SDS011;54116;53.518;49.398;2023-01-29T08:12:01;11.65;;;3.88;;
67185;SDS011;54116;53.518;49.398;2023-01-29T08:14:28;11.20;;;3.60;;
67185;SDS011;54116;53.518;49.398;2023-01-29T08:16:54;11.77;;;3.67;;
67185;SDS011;54116;53.518;49.398;2023-01-29T08:19:20;10.30;;;3.58;;
67185;SDS011;54116;53.518;49.398;2023-01-29T08:21:46;13.23;;;3.97;;
67185;SDS011;54116;53.518;49.398;2023-01-29T08:24:12;9.98;;;4.00;;
67185;SDS011;54116;53.518;49.398;2023-01-29T08:26:38;11.90;;;3.70;;
67185;SDS011;54116;53.518;49.398;2023-01-29T08:29:04;9.55;;;3.30;;
67185;SDS011;54116;53.518;49.398;2023-01-29T08:31:31;13.70;;;4.00;;
67185;SDS011;54116;53.518;49.398;2023-01-29T08:33:58;11.23;;;3.63;;
67185;SDS011;54116;53.518;49.398;2023-01-29T08:38:51;10.30;;;3.70;;
67185;SDS011;54116;53.518;49.398;2023-01-29T08:41:21;11.75;;;3.65;;
67185;SDS011;54116;53.518;49.398;2023-01-29T08:43:49;11.18;;;4.13;;
67185;SDS011;54116;53.518;49.398;2023-01-29T08:46:15;14.27;;;4.10;;
67185;SDS011;54116;53.518;49.398;2023-01-29T08:48:42;12.00;;;3.95;;
67185;SDS011;54116;53.518;49.398;2023-01-29T08:51:08;14.13;;;4.32;;
67185;SDS011;54116;53.518;49.398;2023-01-29T08:53:34;13.52;;;4.82;;
67185;SDS011;54116;53.518;49.398;2023-01-29T08:58:28;10.15;;;3.95;;
67185;SDS011;54116;53.518;49.398;2023-01-29T09:00:54;10.55;;;3.70;;
67185;SDS011;54116;53.518;49.398;2023-01-29T09:03:21;10.75;;;3.55;;
67185;SDS011;54116;53.518;49.398;2023-01-29T09:05:47;9.38;;;3.58;;
67185;SDS011;54116;53.518;49.398;2023-01-29T09:08:13;11.18;;;3.72;;
67185;SDS011;54116;53.518;49.398;2023-01-29T09:10:41;9.98;;;4.20;;
67185;SDS011;54116;53.518;49.398;2023-01-29T09:13:07;13.48;;;4.68;;
67185;SDS011;54116;53.518;49.398;2023-01-29T09:15:33;10.10;;;2.97;;
67185;SDS011;54116;53.518;49.398;2023-01-29T09:18:03;11.52;;;3.42;;
67185;SDS011;54116;53.518;49.398;2023-01-29T09:20:29;11.07;;;4.30;;
67185;SDS011;54116;53.518;49.398;2023-01-29T09:22:56;11.82;;;3.58;;
67185;SDS011;54116;53.518;49.398;2023-01-29T09:25:24;11.07;;;3.70;;
67185;SDS011;54116;53.518;49.398;2023-01-29T09:27:50;9.48;;;3.55;;
67185;SDS011;54116;53.518;49.398;2023-01-29T09:30:18;11.57;;;4.20;;
67185;SDS011;54116;53.518;49.398;2023-01-29T09:32:45;11.90;;;4.65;;
67185;SDS011;54116;53.518;49.398;2023-01-29T09:35:12;10.13;;;3.30;;
67185;SDS011;54116;53.518;49.398;2023-01-29T09:37:38;10.57;;;3.55;;
67185;SDS011;54116;53.518;49.398;2023-01-29T09:40:05;9.82;;;3.30;;
67185;SDS011;54116;53.518;49.398;2023-01-29T09:42:37;10.25;;;3.25;;
67185;SDS011;54116;53.518;49.398;2023-01-29T09:45:28;14.57;;;3.78;;
67185;SDS011;54116;53.518;49.398;2023-01-29T09:48:01;10.93;;;4.10;;
67185;SDS011;54116;53.518;49.398;2023-01-29T09:55:44;12.88;;;4.28;;
67185;SDS011;54116;53.518;49.398;2023-01-29T10:01:06;13.10;;;4.40;;
67185;SDS011;54116;53.518;49.398;2023-01-29T10:06:46;16.05;;;4.72;;
67185;SDS011;54116;53.518;49.398;2023-01-29T10:14:55;11.65;;;5.25;;
67185;SDS011;54116;53.518;49.398;2023-01-29T10:20:41;16.10;;;6.80;;
67185;SDS011;54116;53.518;49.398;2023-01-29T10:23:15;16.55;;;6.88;;
67185;SDS011;54116;53.518;49.398;2023-01-29T10:28:24;13.48;;;5.25;;
67185;SDS011;54116;53.518;49.398;2023-01-29T10:30:59;15.50;;;5.03;;
67185;SDS011;54116;53.518;49.398;2023-01-29T10:33:33;15.15;;;5.40;;
67185;SDS011;54116;53.518;49.398;2023-01-29T10:36:06;15.60;;;5.03;;
67185;SDS011;54116;53.518;49.398;2023-01-29T10:38:46;15.82;;;5.88;;
67185;SDS011;54116;53.518;49.398;2023-01-29T10:55:01;19.67;;;8.35;;
67185;SDS011;54116;53.518;49.398;2023-01-29T11:02:46;16.80;;;6.40;;
67185;SDS011;54116;53.518;49.398;2023-01-29T11:05:19;19.15;;;7.05;;
67185;SDS011;54116;53.518;49.398;2023-01-29T11:07:56;13.80;;;5.63;;
67185;SDS011;54116;53.518;49.398;2023-01-29T11:10:36;15.32;;;5.53;;
67185;SDS011;54116;53.518;49.398;2023-01-29T11:13:13;15.00;;;5.65;;
67185;SDS011;54116;53.518;49.398;2023-01-29T11:15:40;18.95;;;5.32;;
67185;SDS011;54116;53.518;49.398;2023-01-29T11:18:08;15.50;;;5.38;;
67185;SDS011;54116;53.518;49.398;2023-01-29T11:20:41;13.82;;;4.88;;
67185;SDS011;54116;53.518;49.398;2023-01-29T11:23:42;15.30;;;5.50;;
67185;SDS011;54116;53.518;49.398;2023-01-29T11:26:02;14.85;;;5.70;;
67185;SDS011;54116;53.518;49.398;2023-01-29T11:28:34;22.15;;;5.55;;
67185;SDS011;54116;53.518;49.398;2023-01-29T11:31:00;20.10;;;6.03;;
67185;SDS011;54116;53.518;49.398;2023-01-29T11:33:27;11.40;;;4.55;;
67185;SDS011;54116;53.518;49.398;2023-01-29T11:35:54;23.60;;;8.20;;
67185;SDS011;54116;53.518;49.398;2023-01-29T11:40:48;24.23;;;8.45;;
67185;SDS011;54116;53.518;49.398;2023-01-29T11:43:28;22.75;;;9.05;;
67185;SDS011;54116;53.518;49.398;2023-01-29T11:48:44;21.27;;;9.23;;
67185;SDS011;54116;53.518;49.398;2023-01-29T11:51:25;16.55;;;5.72;;
67185;SDS011;54116;53.518;49.398;2023-01-29T11:53:54;13.55;;;4.97;;
67185;SDS011;54116;53.518;49.398;2023-01-29T11:58:51;17.45;;;6.03;;
67185;SDS011;54116;53.518;49.398;2023-01-29T12:01:31;15.98;;;5.55;;
67185;SDS011;54116;53.518;49.398;2023-01-29T12:04:01;15.82;;;5.28;;
67185;SDS011;54116;53.518;49.398;2023-01-29T12:06:33;14.13;;;5.25;;
67185;SDS011;54116;53.518;49.398;2023-01-29T12:09:01;15.50;;;5.45;;
67185;SDS011;54116;53.518;49.398;2023-01-29T12:11:35;17.45;;;5.50;;
67185;SDS011;54116;53.518;49.398;2023-01-29T12:14:05;15.88;;;5.38;;
67185;SDS011;54116;53.518;49.398;2023-01-29T12:19:47;14.90;;;5.38;;
67185;SDS011;54116;53.518;49.398;2023-01-29T12:22:26;17.00;;;5.40;;
67185;SDS011;54116;53.518;49.398;2023-01-29T12:25:11;14.75;;;5.15;;
67185;SDS011;54116;53.518;49.398;2023-01-29T12:27:47;14.23;;;5.25;;
67185;SDS011;54116;53.518;49.398;2023-01-29T12:38:57;14.90;;;5.35;;
67185;SDS011;54116;53.518;49.398;2023-01-29T12:43:56;20.65;;;6.13;;
67185;SDS011;54116;53.518;49.398;2023-01-29T12:46:40;19.00;;;6.43;;
67185;SDS011;54116;53.518;49.398;2023-01-29T12:49:12;18.80;;;6.60;;
67185;SDS011;54116;53.518;49.398;2023-01-29T12:51:48;19.33;;;6.63;;
67185;SDS011;54116;53.518;49.398;2023-01-29T12:54:23;15.50;;;4.93;;
67185;SDS011;54116;53.518;49.398;2023-01-29T12:56:58;14.80;;;5.28;;
67185;SDS011;54116;53.518;49.398;2023-01-29T12:59:30;18.27;;;5.28;;
67185;SDS011;54116;53.518;49.398;2023-01-29T13:02:11;17.80;;;5.50;;
67185;SDS011;54116;53.518;49.398;2023-01-29T13:04:43;19.73;;;7.35;;
67185;SDS011;54116;53.518;49.398;2023-01-29T13:07:17;17.55;;;5.30;;
67185;SDS011;54116;53.518;49.398;2023-01-29T13:09:51;13.82;;;5.70;;
67185;SDS011;54116;53.518;49.398;2023-01-29T13:12:21;13.77;;;4.95;;
67185;SDS011;54116;53.518;49.398;2023-01-29T13:19:58;15.73;;;5.10;;
67185;SDS011;54116;53.518;49.398;2023-01-29T13:22:34;17.50;;;5.55;;
67185;SDS011;54116;53.518;49.398;2023-01-29T13:25:04;16.13;;;5.68;;
67185;SDS011;54116;53.518;49.398;2023-01-29T13:27:36;19.77;;;7.03;;
67185;SDS011;54116;53.518;49.398;2023-01-29T13:30:03;17.85;;;5.55;;
67185;SDS011;54116;53.518;49.398;2023-01-29T13:32:31;15.70;;;4.90;;
67185;SDS011;54116;53.518;49.398;2023-01-29T13:35:03;15.75;;;5.22;;
67185;SDS011;54116;53.518;49.398;2023-01-29T13:37:55;14.77;;;5.95;;
67185;SDS011;54116;53.518;49.398;2023-01-29T13:40:23;16.08;;;5.88;;
67185;SDS011;54116;53.518;49.398;2023-01-29T13:42:51;13.32;;;5.82;;
67185;SDS011;54116;53.518;49.398;2023-01-29T13:45:32;15.90;;;4.75;;
67185;SDS011;54116;53.518;49.398;2023-01-29T13:51:09;13.95;;;5.13;;
67185;SDS011;54116;53.518;49.398;2023-01-29T13:53:40;15.43;;;5.88;;
67185;SDS011;54116;53.518;49.398;2023-01-29T13:59:23;14.65;;;4.28;;
67185;SDS011;54116;53.518;49.398;2023-01-29T14:02:21;13.82;;;4.50;;
67185;SDS011;54116;53.518;49.398;2023-01-29T14:05:19;12.65;;;4.00;;
67185;SDS011;54116;53.518;49.398;2023-01-29T14:07:59;12.43;;;3.92;;
67185;SDS011;54116;53.518;49.398;2023-01-29T14:10:27;15.15;;;4.43;;
67185;SDS011;54116;53.518;49.398;2023-01-29T14:15:30;15.68;;;5.25;;
67185;SDS011;54116;53.518;49.398;2023-01-29T14:26:01;13.80;;;5.60;;
67185;SDS011;54116;53.518;49.398;2023-01-29T14:28:30;16.30;;;5.68;;
67185;SDS011;54116;53.518;49.398;2023-01-29T14:30:58;16.40;;;5.05;;
67185;SDS011;54116;53.518;49.398;2023-01-29T14:35:57;12.43;;;4.93;;
67185;SDS011;54116;53.518;49.398;2023-01-29T14:38:25;15.73;;;4.93;;
67185;SDS011;54116;53.518;49.398;2023-01-29T14:41:01;13.90;;;4.65;;
67185;SDS011;54116;53.518;49.398;2023-01-29T14:43:33;14.48;;;4.55;;
67185;SDS011;54116;53.518;49.398;2023-01-29T14:52:28;13.35;;;3.28;;
67185;SDS011;54116;53.518;49.398;2023-01-29T14:55:03;11.93;;;3.30;;
67185;SDS011;54116;53.518;49.398;2023-01-29T14:57:33;11.73;;;3.80;;
67185;SDS011;54116;53.518;49.398;2023-01-29T15:00:03;11.20;;;3.80;;
67185;SDS011;54116;53.518;49.398;2023-01-29T15:02:41;10.90;;;3.58;;
67185;SDS011;54116;53.518;49.398;2023-01-29T15:05:19;9.98;;;3.70;;
67185;SDS011;54116;53.518;49.398;2023-01-29T15:10:37;9.82;;;3.78;;
67185;SDS011;54116;53.518;49.398;2023-01-29T15:13:18;12.25;;;3.97;;
67185;SDS011;54116;53.518;49.398;2023-01-29T15:16:01;13.30;;;4.22;;
67185;SDS011;54116;53.518;49.398;2023-01-29T15:18:35;12.75;;;3.30;;
67185;SDS011;54116;53.518;49.398;2023-01-29T15:21:10;11.82;;;4.97;;
67185;SDS011;54116;53.518;49.398;2023-01-29T15:23:37;8.88;;;2.88;;
67185;SDS011;54116;53.518;49.398;2023-01-29T15:28:31;16.25;;;4.00;;
67185;SDS011;54116;53.518;49.398;2023-01-29T15:30:59;10.77;;;4.07;;
67185;SDS011;54116;53.518;49.398;2023-01-29T15:33:33;14.13;;;4.53;;
67185;SDS011;54116;53.518;49.398;2023-01-29T15:36:03;10.18;;;3.50;;
67185;SDS011;54116;53.518;49.398;2023-01-29T15:38:30;9.65;;;2.83;;
67185;SDS011;54116;53.518;49.398;2023-01-29T15:41:13;9.50;;;3.15;;
67185;SDS011;54116;53.518;49.398;2023-01-29T15:43:45;11.15;;;3.35;;
67185;SDS011;54116;53.518;49.398;2023-01-29T15:46:20;9.43;;;2.92;;
67185;SDS011;54116;53.518;49.398;2023-01-29T15:48:49;8.80;;;3.33;;
67185;SDS011;54116;53.518;49.398;2023-01-29T15:51:28;10.38;;;3.75;;
67185;SDS011;54116;53.518;49.398;2023-01-29T15:53:59;9.50;;;3.58;;
67185;SDS011;54116;53.518;49.398;2023-01-29T15:56:29;9.68;;;3.10;;
67185;SDS011;54116;53.518;49.398;2023-01-29T15:58:59;16.48;;;4.45;;
67185;SDS011;54116;53.518;49.398;2023-01-29T16:01:28;10.85;;;3.53;;
67185;SDS011;54116;53.518;49.398;2023-01-29T16:03:56;10.88;;;3.22;;
67185;SDS011;54116;53.518;49.398;2023-01-29T16:06:28;8.43;;;2.70;;
67185;SDS011;54116;53.518;49.398;2023-01-29T16:09:01;9.85;;;3.10;;
67185;SDS011;54116;53.518;49.398;2023-01-29T16:11:29;9.68;;;3.63;;
67185;SDS011;54116;53.518;49.398;2023-01-29T16:13:55;11.73;;;3.40;;
67185;SDS011;54116;53.518;49.398;2023-01-29T16:16:23;12.73;;;3.92;;
67185;SDS011;54116;53.518;49.398;2023-01-29T16:18:50;9.60;;;3.13;;
67185;SDS011;54116;53.518;49.398;2023-01-29T16:23:50;8.48;;;2.92;;
67185;SDS011;54116;53.518;49.398;2023-01-29T16:26:19;10.98;;;2.78;;
67185;SDS011;54116;53.518;49.398;2023-01-29T16:28:49;12.35;;;3.22;;
67185;SDS011;54116;53.518;49.398;2023-01-29T16:31:25;13.35;;;4.10;;
67185;SDS011;54116;53.518;49.398;2023-01-29T16:33:53;10.38;;;2.88;;
67185;SDS011;54116;53.518;49.398;2023-01-29T16:36:22;13.35;;;3.78;;
67185;SDS011;54116;53.518;49.398;2023-01-29T16:38:55;9.70;;;3.22;;
67185;SDS011;54116;53.518;49.398;2023-01-29T16:44:01;10.23;;;3.20;;
67185;SDS011;54116;53.518;49.398;2023-01-29T16:46:32;12.10;;;3.00;;
67185;SDS011;54116;53.518;49.398;2023-01-29T16:52:17;9.32;;;3.13;;
67185;SDS011;54116;53.518;49.398;2023-01-29T16:54:57;9.57;;;2.92;;
67185;SDS011;54116;53.518;49.398;2023-01-29T16:57:26;9.70;;;3.28;;
67185;SDS011;54116;53.518;49.398;2023-01-29T16:59:56;9.88;;;3.58;;
67185;SDS011;54116;53.518;49.398;2023-01-29T17:02:30;10.15;;;3.83;;
67185;SDS011;54116;53.518;49.398;2023-01-29T17:05:02;8.77;;;2.72;;
67185;SDS011;54116;53.518;49.398;2023-01-29T17:07:31;12.38;;;3.92;;
67185;SDS011;54116;53.518;49.398;2023-01-29T17:10:00;13.85;;;2.90;;
67185;SDS011;54116;53.518;49.398;2023-01-29T17:12:28;9.93;;;3.03;;
67185;SDS011;54116;53.518;49.398;2023-01-29T17:15:03;10.07;;;2.90;;
67185;SDS011;54116;53.518;49.398;2023-01-29T17:17:50;10.27;;;2.67;;
67185;SDS011;54116;53.518;49.398;2023-01-29T17:20:16;9.60;;;3.30;;
67185;SDS011;54116;53.518;49.398;2023-01-29T17:22:42;8.95;;;3.03;;
67185;SDS011;54116;53.518;49.398;2023-01-29T17:25:12;12.75;;;3.45;;
67185;SDS011;54116;53.518;49.398;2023-01-29T17:27:39;9.43;;;3.22;;
67185;SDS011;54116;53.518;49.398;2023-01-29T17:30:11;10.43;;;2.83;;
67185;SDS011;54116;53.518;49.398;2023-01-29T17:32:39;10.77;;;2.78;;
67185;SDS011;54116;53.518;49.398;2023-01-29T17:35:05;11.90;;;3.72;;
67185;SDS011;54116;53.518;49.398;2023-01-29T17:37:31;13.77;;;3.38;;
67185;SDS011;54116;53.518;49.398;2023-01-29T17:39:57;9.68;;;3.22;;